Corpus Christi Jet Center

SKYE FBO - AIRPORT SERVICES
McCampbell-Porter Airport KTFP
Call Us 24/7: (361) 758-2000
KTFP - McCampbell-Porter Airport
Updated: Tue, 22-Jan-2019 7:55am PST
Overcast
Overcast
 Wind from S
Wind: S 21 mph , 33 km/h, Gust: 28 mph , 44 km/h
Temperature: 70°F , 21°C
Dew Point: 59°F , 15°C
Humidity: 69%
Barometer: 29.88 inHg , 1011.9 hPa
Clouds: Overcast
Visibility: 10 miles , 16 km
Cloud details: Overcast 3900 ft
2019/01/22 15:55 KTFP 221555Z AUTO 19018G24KT 10SM OVC039 21/15 A2988 RMK AO2 T02090151 PNO

Location

3141 FM 3512
Aransas Pass, TX 78336-9728
361-758-2000
2 miles N of Ingleside, TX
Only 15 min from downtown Corpus Christi 2 miles N of Ingleside, Texas and only 15 minutes from downtown Corpus Christi, Texas

(click to enlarge)

Map


View Larger Map

Skyview Aviation BBB Business Review

Call Us: 361-758-2000

or send us a message

*please use contact form for feedback only. ALL requests must be made by phone.